createdAt,value
2023-03-04T00:02:25.986Z,52.31
2023-03-04T00:04:52.952Z,52.10
2023-03-04T00:07:19.946Z,52.19
2023-03-04T00:09:47.630Z,51.98
2023-03-04T00:12:14.760Z,52.50
2023-03-04T00:14:42.076Z,52.87
2023-03-04T00:17:09.119Z,52.06
2023-03-04T00:19:36.401Z,53.14
2023-03-04T00:22:04.669Z,52.79
2023-03-04T00:24:32.500Z,52.40
2023-03-04T00:26:59.614Z,52.53
2023-03-04T00:29:26.999Z,52.55
2023-03-04T00:31:54.295Z,52.63
2023-03-04T00:34:21.421Z,52.41
2023-03-04T00:36:48.563Z,52.17
2023-03-04T00:39:15.786Z,52.46
2023-03-04T00:41:42.862Z,52.63
2023-03-04T00:44:10.322Z,52.48
2023-03-04T00:46:37.296Z,52.85
2023-03-04T00:49:04.848Z,52.82
2023-03-04T00:51:31.784Z,52.88
2023-03-04T00:54:00.776Z,53.17
2023-03-04T00:56:28.594Z,52.80
2023-03-04T00:58:55.863Z,52.76
2023-03-04T01:01:23.229Z,52.61
2023-03-04T01:03:51.633Z,53.00
2023-03-04T01:06:18.605Z,53.10
2023-03-04T01:08:45.524Z,54.43
2023-03-04T01:11:12.613Z,53.00
2023-03-04T01:13:40.423Z,53.06
2023-03-04T01:16:08.030Z,53.26
2023-03-04T01:18:35.125Z,53.54
2023-03-04T01:21:02.783Z,53.43
2023-03-04T01:23:29.903Z,53.49
2023-03-04T01:25:56.903Z,53.90
2023-03-04T01:28:25.369Z,53.80
2023-03-04T01:30:52.386Z,53.32
2023-03-04T01:33:19.414Z,53.83
2023-03-04T01:35:46.478Z,53.65
2023-03-04T01:38:13.450Z,53.45
2023-03-04T01:40:40.911Z,53.86
2023-03-04T01:43:08.114Z,54.19
2023-03-04T01:45:36.198Z,53.68
2023-03-04T01:48:03.969Z,53.93
2023-03-04T01:50:34.295Z,54.10
2023-03-04T01:53:04.855Z,54.22
2023-03-04T01:55:31.954Z,53.83
2023-03-04T01:57:59.312Z,53.85
2023-03-04T02:00:32.934Z,54.70
2023-03-04T02:03:11.457Z,54.53
2023-03-04T02:05:41.570Z,54.33
2023-03-04T02:08:10.014Z,54.47
2023-03-04T02:10:37.514Z,54.68
2023-03-04T02:13:06.526Z,55.26
2023-03-04T02:15:33.666Z,54.98
2023-03-04T02:18:01.428Z,54.77
2023-03-04T02:20:51.530Z,55.62
2023-03-04T02:23:25.555Z,55.59
2023-03-04T02:26:14.248Z,56.18
2023-03-04T02:28:42.534Z,55.25
2023-03-04T02:31:24.384Z,55.57
2023-03-04T02:33:53.298Z,55.19
2023-03-04T02:36:20.301Z,54.73
2023-03-04T02:38:47.240Z,54.85
2023-03-04T02:41:17.585Z,54.78
2023-03-04T02:43:52.386Z,54.88
2023-03-04T02:46:19.819Z,55.01
2023-03-04T02:48:47.574Z,54.48
2023-03-04T02:51:14.483Z,55.15
2023-03-04T02:53:41.763Z,54.66
2023-03-04T02:56:09.008Z,54.71
2023-03-04T02:58:38.421Z,54.49
2023-03-04T03:01:06.489Z,54.09
2023-03-04T03:03:33.520Z,54.44
2023-03-04T03:06:00.457Z,53.75
2023-03-04T03:08:27.365Z,53.94
2023-03-04T03:10:54.905Z,54.01
2023-03-04T03:13:23.423Z,53.96
2023-03-04T03:15:50.821Z,53.71
2023-03-04T03:18:17.826Z,53.48
2023-03-04T03:20:44.784Z,53.70
2023-03-04T03:23:11.720Z,53.37
2023-03-04T03:25:38.698Z,53.71
2023-03-04T03:28:06.665Z,54.21
2023-03-04T03:30:33.718Z,53.68
2023-03-04T03:33:00.664Z,53.67
2023-03-04T03:35:28.519Z,54.22
2023-03-04T03:37:56.407Z,54.00
2023-03-04T03:40:23.344Z,53.85
2023-03-04T03:42:50.324Z,53.95
2023-03-04T03:45:17.286Z,53.50
2023-03-04T03:47:44.177Z,53.32
2023-03-04T03:50:12.092Z,53.25
2023-03-04T03:52:38.987Z,53.25
2023-03-04T03:55:06.263Z,53.25
2023-03-04T03:57:33.245Z,53.21
2023-03-04T04:00:00.112Z,53.08
2023-03-04T04:02:27.058Z,53.00
2023-03-04T04:04:54.004Z,52.97
2023-03-04T04:07:20.970Z,52.81
2023-03-04T04:09:48.257Z,52.82
2023-03-04T04:12:17.133Z,52.78
2023-03-04T04:14:44.084Z,52.69
2023-03-04T04:17:11.302Z,53.00
2023-03-04T04:19:38.773Z,52.53
2023-03-04T04:22:05.730Z,52.64
2023-03-04T04:24:32.642Z,52.63
2023-03-04T04:26:59.555Z,52.56
2023-03-04T04:29:26.483Z,52.59
2023-03-04T04:31:53.434Z,52.65
2023-03-04T04:34:20.254Z,53.11
2023-03-04T04:36:47.188Z,53.09
2023-03-04T04:39:15.088Z,53.10
2023-03-04T04:41:43.479Z,53.12
2023-03-04T04:44:10.883Z,52.76
2023-03-04T04:46:38.833Z,53.27
2023-03-04T04:49:07.344Z,53.23
2023-03-04T04:51:35.920Z,52.86
2023-03-04T04:54:04.221Z,53.24
2023-03-04T04:56:31.361Z,53.10
2023-03-04T04:59:01.241Z,53.23
2023-03-04T05:01:28.924Z,52.89
2023-03-04T05:03:56.107Z,53.15
2023-03-04T05:06:24.622Z,53.36
2023-03-04T05:08:52.145Z,53.94
2023-03-04T05:11:26.230Z,53.91
2023-03-04T05:13:53.685Z,53.25
2023-03-04T05:16:20.577Z,53.44
2023-03-04T05:18:47.631Z,53.37
2023-03-04T05:21:15.041Z,53.36
2023-03-04T05:23:43.576Z,53.82
2023-03-04T05:26:15.629Z,54.35
2023-03-04T05:28:42.713Z,53.69
2023-03-04T05:31:09.971Z,53.87
2023-03-04T05:33:37.454Z,53.75
2023-03-04T05:36:06.514Z,53.81
2023-03-04T05:38:34.007Z,53.95
2023-03-04T05:41:04.588Z,53.90
2023-03-04T05:43:32.325Z,53.98
2023-03-04T05:45:59.593Z,53.95
2023-03-04T05:48:26.595Z,54.23
2023-03-04T05:50:57.839Z,53.87
2023-03-04T05:53:25.387Z,53.52
2023-03-04T05:55:52.867Z,53.41
2023-03-04T05:58:20.500Z,54.06
2023-03-04T06:00:47.758Z,53.56
2023-03-04T06:03:19.760Z,54.56
2023-03-04T06:05:47.010Z,54.36
2023-03-04T06:08:14.978Z,54.17
2023-03-04T06:10:42.403Z,54.56
2023-03-04T06:13:10.867Z,54.32
2023-03-04T06:15:39.694Z,53.98
2023-03-04T06:18:07.897Z,54.39
2023-03-04T06:20:34.988Z,54.39
2023-03-04T06:23:02.274Z,54.24
2023-03-04T06:25:29.784Z,53.75
2023-03-04T06:27:57.839Z,53.74
2023-03-04T06:30:24.937Z,54.27
2023-03-04T06:32:51.883Z,53.87
2023-03-04T06:35:18.966Z,53.04
2023-03-04T06:37:45.972Z,52.75
2023-03-04T06:40:13.356Z,51.89
2023-03-04T06:42:41.261Z,51.37
2023-03-04T06:45:09.880Z,50.68
2023-03-04T06:47:37.346Z,49.84
2023-03-04T06:50:05.178Z,48.80
2023-03-04T06:52:32.071Z,47.94
2023-03-04T06:54:58.944Z,47.15
2023-03-04T06:57:25.856Z,46.43
2023-03-04T06:59:52.864Z,44.94
2023-03-04T07:02:20.030Z,43.82
2023-03-04T07:04:47.304Z,43.02
2023-03-04T07:07:14.762Z,41.85
2023-03-04T07:09:41.743Z,40.65
2023-03-04T07:12:08.778Z,39.76
2023-03-04T07:14:35.785Z,38.79
2023-03-04T07:17:02.827Z,38.29
2023-03-04T07:19:30.127Z,36.48
2023-03-04T07:21:57.467Z,36.37
2023-03-04T07:24:24.828Z,35.21
2023-03-04T07:26:51.804Z,33.74
2023-03-04T07:29:19.639Z,34.04
2023-03-04T07:31:46.783Z,33.60
2023-03-04T07:34:15.069Z,32.42
2023-03-04T07:36:43.107Z,32.48
2023-03-04T07:39:13.173Z,31.84
2023-03-04T07:41:41.108Z,31.59
2023-03-04T07:44:09.995Z,30.53
2023-03-04T07:46:38.293Z,29.79
2023-03-04T07:49:05.287Z,29.83
2023-03-04T07:51:32.258Z,29.39
2023-03-04T07:54:01.157Z,28.47
2023-03-04T07:56:30.880Z,28.25
2023-03-04T07:58:58.455Z,26.89
2023-03-04T08:01:30.006Z,26.29
2023-03-04T08:03:57.880Z,26.15
2023-03-04T08:06:26.882Z,25.59
2023-03-04T08:09:03.483Z,23.62
2023-03-04T08:11:31.295Z,25.18
2023-03-04T08:13:58.702Z,24.21
2023-03-04T08:16:26.154Z,23.83
2023-03-04T08:18:56.656Z,23.22
2023-03-04T08:21:25.713Z,22.60
2023-03-04T08:23:53.769Z,21.92
2023-03-04T08:26:24.795Z,21.54
2023-03-04T08:28:52.527Z,22.12
2023-03-04T08:31:20.327Z,21.18
2023-03-04T08:33:47.660Z,21.63
2023-03-04T08:36:15.784Z,21.46
2023-03-04T08:38:43.285Z,20.56
2023-03-04T08:41:10.539Z,20.53
2023-03-04T08:43:37.815Z,20.51
2023-03-04T08:46:05.575Z,18.74
2023-03-04T08:48:32.537Z,19.54
2023-03-04T08:50:59.500Z,18.47
2023-03-04T08:53:26.700Z,18.33
2023-03-04T08:55:53.689Z,18.25
2023-03-04T08:58:20.875Z,18.22
2023-03-04T09:00:51.607Z,18.39
2023-03-04T09:03:20.525Z,18.02
2023-03-04T09:05:49.586Z,17.34
2023-03-04T09:08:17.402Z,18.06
2023-03-04T09:10:46.293Z,17.54
2023-03-04T09:13:17.093Z,16.88
2023-03-04T09:15:49.112Z,17.00
2023-03-04T09:18:17.833Z,16.52
2023-03-04T09:20:46.048Z,16.16
2023-03-04T09:23:13.443Z,16.23
2023-03-04T09:25:44.461Z,15.84
2023-03-04T09:28:12.733Z,15.69
2023-03-04T09:30:40.441Z,15.26
2023-03-04T09:33:07.522Z,15.32
2023-03-04T09:35:34.501Z,15.07
2023-03-04T09:38:01.544Z,15.67
2023-03-04T09:40:37.713Z,14.35
2023-03-04T09:43:06.846Z,15.25
2023-03-04T09:45:40.255Z,14.15
2023-03-04T09:48:09.611Z,14.70
2023-03-04T09:50:46.187Z,14.01
2023-03-04T09:53:18.854Z,13.99
2023-03-04T09:55:50.528Z,13.94
2023-03-04T09:58:38.672Z,13.45
2023-03-04T10:01:25.605Z,13.76
2023-03-04T10:04:00.222Z,12.88
2023-03-04T10:06:27.740Z,11.93
2023-03-04T10:09:02.261Z,12.85
2023-03-04T10:11:32.906Z,12.51
2023-03-04T10:14:12.560Z,10.90
2023-03-04T10:16:51.989Z,11.89
2023-03-04T10:20:00.751Z,11.13
2023-03-04T10:22:31.955Z,11.86
2023-03-04T10:25:21.346Z,12.31
2023-03-04T10:27:56.498Z,11.87
2023-03-04T10:31:00.587Z,11.94
2023-03-04T10:33:30.871Z,12.09
2023-03-04T10:36:14.055Z,11.93
2023-03-04T10:38:42.822Z,11.33
2023-03-04T10:41:14.161Z,12.05
2023-03-04T10:43:42.703Z,11.90
2023-03-04T10:46:12.372Z,11.85
2023-03-04T10:48:43.573Z,12.10
2023-03-04T10:51:20.563Z,11.48
2023-03-04T10:53:51.566Z,11.53
2023-03-04T10:56:46.508Z,11.61
2023-03-04T10:59:28.920Z,11.37
2023-03-04T11:01:55.866Z,11.50
2023-03-04T11:04:28.108Z,10.96
2023-03-04T11:06:55.882Z,12.71
2023-03-04T11:09:25.921Z,12.39
2023-03-04T11:11:55.333Z,13.07
2023-03-04T11:14:29.619Z,12.30
2023-03-04T11:17:01.914Z,12.87
2023-03-04T11:19:38.554Z,13.09
2023-03-04T11:22:06.098Z,12.90
2023-03-04T11:24:37.183Z,13.62
2023-03-04T11:27:08.821Z,12.55
2023-03-04T11:29:43.436Z,12.75
2023-03-04T11:32:15.608Z,13.55
2023-03-04T11:34:57.225Z,14.17
2023-03-04T11:37:36.090Z,14.17
2023-03-04T11:40:12.398Z,15.07
2023-03-04T11:42:48.442Z,15.84
2023-03-04T11:45:29.169Z,16.91
2023-03-04T11:48:27.732Z,17.03
2023-03-04T11:51:29.447Z,17.52
2023-03-04T11:54:20.915Z,18.82
2023-03-04T11:57:03.132Z,19.48
2023-03-04T11:59:34.965Z,19.71
2023-03-04T12:02:12.725Z,20.24
2023-03-04T12:04:57.706Z,20.52
2023-03-04T12:07:46.324Z,20.39
2023-03-04T12:10:31.970Z,22.86
2023-03-04T12:13:07.475Z,23.83
2023-03-04T12:15:58.786Z,24.65
2023-03-04T12:18:37.943Z,25.06
2023-03-04T12:21:22.027Z,25.87
2023-03-04T12:23:48.815Z,26.03
2023-03-04T12:26:15.954Z,26.65
2023-03-04T12:28:53.449Z,27.88
2023-03-04T12:31:39.697Z,28.71
2023-03-04T12:34:44.604Z,30.01
2023-03-04T12:37:35.771Z,30.56
2023-03-04T12:40:18.389Z,31.61
2023-03-04T12:43:13.720Z,31.65
2023-03-04T12:45:40.468Z,32.52
2023-03-04T12:48:26.003Z,32.22
2023-03-04T12:51:20.308Z,32.33
2023-03-04T12:54:20.978Z,32.81
2023-03-04T12:56:55.057Z,33.11
2023-03-04T12:59:26.644Z,32.73
2023-03-04T13:02:14.924Z,33.55
2023-03-04T13:04:59.821Z,34.01
2023-03-04T13:07:38.918Z,34.11
2023-03-04T13:10:12.910Z,34.32
2023-03-04T13:12:49.467Z,34.32
2023-03-04T13:15:22.488Z,33.97
2023-03-04T13:17:54.632Z,33.65
2023-03-04T13:20:24.308Z,32.98
2023-03-04T13:22:59.373Z,33.35
2023-03-04T13:25:32.585Z,33.79
2023-03-04T13:28:00.358Z,33.22
2023-03-04T13:30:36.174Z,34.21
2023-03-04T13:33:08.947Z,34.88
2023-03-04T13:35:54.879Z,35.92
2023-03-04T13:38:31.245Z,35.34
2023-03-04T13:41:22.464Z,35.05
2023-03-04T13:43:50.558Z,34.30
2023-03-04T13:46:20.673Z,34.69
2023-03-04T13:48:50.392Z,34.31
2023-03-04T13:51:32.816Z,34.54
2023-03-04T13:53:59.689Z,36.33
2023-03-04T13:56:50.392Z,36.14
2023-03-04T13:59:26.283Z,36.03
2023-03-04T14:02:01.235Z,37.29
2023-03-04T14:04:37.349Z,36.65
2023-03-04T14:07:19.717Z,36.22
2023-03-04T14:10:07.685Z,36.33
2023-03-04T14:12:41.448Z,36.04
2023-03-04T14:15:31.519Z,36.21
2023-03-04T14:18:01.164Z,36.24
2023-03-04T14:20:37.857Z,36.91
2023-03-04T14:23:24.364Z,37.57
2023-03-04T14:25:51.531Z,37.19
2023-03-04T14:28:20.612Z,37.19
2023-03-04T14:30:56.992Z,37.19
2023-03-04T14:33:26.581Z,37.26
2023-03-04T14:36:02.810Z,38.14
2023-03-04T14:38:39.036Z,38.31
2023-03-04T14:41:10.763Z,38.03
2023-03-04T14:43:47.331Z,37.94
2023-03-04T14:46:18.911Z,38.44
2023-03-04T14:48:51.389Z,39.02
2023-03-04T14:51:42.604Z,39.60
2023-03-04T14:54:53.917Z,40.62
2023-03-04T14:57:26.708Z,39.84
2023-03-04T14:59:54.633Z,40.37
2023-03-04T15:02:35.751Z,41.73
2023-03-04T15:05:25.881Z,41.09
2023-03-04T15:08:01.124Z,41.15
2023-03-04T15:10:34.117Z,40.46
2023-03-04T15:13:04.116Z,40.24
2023-03-04T15:15:42.810Z,39.85
2023-03-04T15:18:27.423Z,39.25
2023-03-04T15:20:55.594Z,38.53
2023-03-04T15:23:22.486Z,38.80
2023-03-04T15:25:54.753Z,39.20
2023-03-04T15:28:22.107Z,38.54
2023-03-04T15:30:49.365Z,38.82
2023-03-04T15:33:16.335Z,38.75
2023-03-04T15:35:51.824Z,39.23
2023-03-04T15:38:19.357Z,38.89
2023-03-04T15:40:46.676Z,39.13
2023-03-04T15:43:23.567Z,39.52
2023-03-04T15:45:51.935Z,39.56
2023-03-04T15:48:20.072Z,40.19
2023-03-04T15:50:55.886Z,40.28
2023-03-04T15:53:36.053Z,40.67
2023-03-04T15:56:05.277Z,41.52
2023-03-04T15:58:34.980Z,40.70
2023-03-04T16:01:02.764Z,41.44
2023-03-04T16:03:29.700Z,42.12
2023-03-04T16:05:57.161Z,42.44
2023-03-04T16:08:27.358Z,42.40
2023-03-04T16:10:54.864Z,42.04
2023-03-04T16:13:24.161Z,42.11
2023-03-04T16:15:51.611Z,42.41
2023-03-04T16:18:18.833Z,42.06
2023-03-04T16:20:49.444Z,42.74
2023-03-04T16:23:21.780Z,42.38
2023-03-04T16:25:50.881Z,42.09
2023-03-04T16:28:17.804Z,42.24
2023-03-04T16:30:44.847Z,41.91
2023-03-04T16:33:11.836Z,40.85
2023-03-04T16:35:40.115Z,40.58
2023-03-04T16:38:20.625Z,40.12
2023-03-04T16:40:47.812Z,39.72
2023-03-04T16:43:14.888Z,39.59
2023-03-04T16:45:42.237Z,39.31
2023-03-04T16:48:09.183Z,39.44
2023-03-04T16:50:37.846Z,39.46
2023-03-04T16:53:05.413Z,39.24
2023-03-04T16:55:32.659Z,39.44
2023-03-04T16:57:59.511Z,39.34
2023-03-04T17:00:28.893Z,40.00
2023-03-04T17:03:01.176Z,40.09
2023-03-04T17:05:31.807Z,40.40
2023-03-04T17:07:58.859Z,40.34
2023-03-04T17:10:26.845Z,40.31
2023-03-04T17:12:54.167Z,40.51
2023-03-04T17:15:21.428Z,40.58
2023-03-04T17:17:51.072Z,40.69
2023-03-04T17:20:19.682Z,41.08
2023-03-04T17:22:46.702Z,41.39
2023-03-04T17:25:14.696Z,41.53
2023-03-04T17:27:42.373Z,41.40
2023-03-04T17:30:11.726Z,41.17
2023-03-04T17:32:40.532Z,41.25
2023-03-04T17:35:08.840Z,41.48
2023-03-04T17:37:36.354Z,42.07
2023-03-04T17:40:05.896Z,42.60
2023-03-04T17:42:33.163Z,42.27
2023-03-04T17:45:00.214Z,42.83
2023-03-04T17:47:27.256Z,42.28
2023-03-04T17:49:54.248Z,42.74
2023-03-04T17:52:21.546Z,43.21
2023-03-04T17:54:48.839Z,42.82
2023-03-04T17:57:18.322Z,42.63
2023-03-04T17:59:46.652Z,42.26
2023-03-04T18:02:16.567Z,42.59
2023-03-04T18:04:46.134Z,42.37
2023-03-04T18:07:13.097Z,42.70
2023-03-04T18:09:40.189Z,42.53
2023-03-04T18:12:07.517Z,42.63
2023-03-04T18:14:34.748Z,42.73
2023-03-04T18:17:01.664Z,43.82
2023-03-04T18:19:28.637Z,43.16
2023-03-04T18:21:55.569Z,43.32
2023-03-04T18:24:22.534Z,43.50
2023-03-04T18:26:49.521Z,43.35
2023-03-04T18:29:16.507Z,43.76
2023-03-04T18:31:43.440Z,44.43
2023-03-04T18:34:11.115Z,44.29
2023-03-04T18:36:38.264Z,44.32
2023-03-04T18:39:07.502Z,44.04
2023-03-04T18:41:34.655Z,44.58
2023-03-04T18:44:01.623Z,45.74
2023-03-04T18:46:30.008Z,45.99
2023-03-04T18:49:01.665Z,46.60
2023-03-04T18:51:28.889Z,45.90
2023-03-04T18:53:55.826Z,47.07
2023-03-04T18:56:37.693Z,48.04
2023-03-04T18:59:21.774Z,45.81
2023-03-04T19:01:50.634Z,46.07
2023-03-04T19:04:19.474Z,45.56
2023-03-04T19:06:46.462Z,45.94
2023-03-04T19:09:13.400Z,45.76
2023-03-04T19:11:40.347Z,45.55
2023-03-04T19:14:07.467Z,47.00
2023-03-04T19:16:34.642Z,46.71
2023-03-04T19:19:01.556Z,47.20
2023-03-04T19:21:28.448Z,46.33
2023-03-04T19:23:55.332Z,46.24
2023-03-04T19:26:22.541Z,46.24
2023-03-04T19:28:49.692Z,46.30
2023-03-04T19:31:16.705Z,45.88
2023-03-04T19:33:43.687Z,46.48
2023-03-04T19:36:10.758Z,46.07
2023-03-04T19:38:37.757Z,46.35
2023-03-04T19:41:10.258Z,46.74
2023-03-04T19:43:39.308Z,46.56
2023-03-04T19:46:08.111Z,46.51
2023-03-04T19:48:36.370Z,46.85
2023-03-04T19:51:04.846Z,47.00
2023-03-04T19:53:34.746Z,46.87
2023-03-04T19:56:01.873Z,46.85
2023-03-04T19:58:28.712Z,46.87
2023-03-04T20:00:56.317Z,47.28
2023-03-04T20:03:24.250Z,46.46
2023-03-04T20:05:51.226Z,46.83
2023-03-04T20:08:18.909Z,47.62
2023-03-04T20:10:45.890Z,47.45
2023-03-04T20:13:12.754Z,47.10
2023-03-04T20:15:43.077Z,47.34
2023-03-04T20:18:10.278Z,46.97
2023-03-04T20:20:40.021Z,47.25
2023-03-04T20:23:07.224Z,47.51
2023-03-04T20:25:34.187Z,47.49
2023-03-04T20:28:01.947Z,47.75
2023-03-04T20:30:29.137Z,48.04
2023-03-04T20:32:56.175Z,47.72
2023-03-04T20:35:23.247Z,47.62
2023-03-04T20:37:51.008Z,47.85
2023-03-04T20:40:18.326Z,47.78
2023-03-04T20:42:46.656Z,47.79
2023-03-04T20:45:14.097Z,48.03
2023-03-04T20:47:41.449Z,48.47
2023-03-04T20:50:08.995Z,48.10
2023-03-04T20:52:35.910Z,48.23
2023-03-04T20:55:02.824Z,48.24
2023-03-04T20:57:30.524Z,48.36
2023-03-04T20:59:57.470Z,48.65
2023-03-04T21:02:26.004Z,48.11
2023-03-04T21:04:53.956Z,49.05
2023-03-04T21:07:20.920Z,48.21
2023-03-04T21:09:47.967Z,48.53
2023-03-04T21:12:15.070Z,48.18
2023-03-04T21:14:42.027Z,48.13
2023-03-04T21:17:10.316Z,48.93
2023-03-04T21:19:44.343Z,48.07
2023-03-04T21:22:18.036Z,48.25
2023-03-04T21:24:46.526Z,48.11
2023-03-04T21:27:16.604Z,48.59
2023-03-04T21:29:43.670Z,48.23
2023-03-04T21:32:24.893Z,48.86
2023-03-04T21:34:54.549Z,48.35
2023-03-04T21:37:23.842Z,48.61
2023-03-04T21:39:51.030Z,48.43
2023-03-04T21:42:17.944Z,48.98
2023-03-04T21:44:49.706Z,49.06
2023-03-04T21:47:18.388Z,49.12
2023-03-04T21:49:45.303Z,48.93
2023-03-04T21:52:13.203Z,48.54
2023-03-04T21:54:40.337Z,48.68
2023-03-04T21:57:07.328Z,48.38
2023-03-04T21:59:34.269Z,48.78
2023-03-04T22:02:02.484Z,49.21
2023-03-04T22:04:29.453Z,49.40
2023-03-04T22:06:56.364Z,49.19
2023-03-04T22:09:23.287Z,48.92
2023-03-04T22:11:50.789Z,48.68
2023-03-04T22:14:17.822Z,49.18
2023-03-04T22:16:54.380Z,48.97
2023-03-04T22:19:26.969Z,49.08
2023-03-04T22:21:54.668Z,48.87
2023-03-04T22:24:22.006Z,49.36
2023-03-04T22:26:49.507Z,48.76
2023-03-04T22:29:16.528Z,49.40
2023-03-04T22:31:43.695Z,49.85
2023-03-04T22:34:13.228Z,49.69
2023-03-04T22:36:43.275Z,49.35
2023-03-04T22:39:12.895Z,49.40
2023-03-04T22:41:39.914Z,49.59
2023-03-04T22:44:07.652Z,49.68
2023-03-04T22:46:36.985Z,49.69
2023-03-04T22:49:06.448Z,49.96
2023-03-04T22:51:33.370Z,49.76
2023-03-04T22:54:00.229Z,50.18
2023-03-04T22:56:27.279Z,49.97
2023-03-04T22:58:54.248Z,50.17
2023-03-04T23:01:21.484Z,49.86
2023-03-04T23:03:49.503Z,50.19
2023-03-04T23:06:21.999Z,51.08
2023-03-04T23:08:50.563Z,50.11
2023-03-04T23:11:35.561Z,50.90
2023-03-04T23:14:06.549Z,51.12
2023-03-04T23:16:37.313Z,50.12
2023-03-04T23:19:05.684Z,50.49
2023-03-04T23:21:34.090Z,50.71
2023-03-04T23:24:02.437Z,50.67
2023-03-04T23:26:35.098Z,50.95
2023-03-04T23:29:04.490Z,50.61
2023-03-04T23:31:32.874Z,51.05
2023-03-04T23:34:01.156Z,50.98
2023-03-04T23:36:37.897Z,51.57
2023-03-04T23:39:06.914Z,51.41
2023-03-04T23:41:34.934Z,51.33
2023-03-04T23:44:02.566Z,51.85
2023-03-04T23:46:29.959Z,50.98
2023-03-04T23:48:57.811Z,51.15
2023-03-04T23:51:27.946Z,51.46
2023-03-04T23:53:56.177Z,52.42
2023-03-04T23:56:26.146Z,52.08
2023-03-04T23:58:53.866Z,52.14
